createdAt,value
2023-07-24T00:00:35.050Z,74.72
2023-07-24T00:05:37.204Z,75.30
2023-07-24T00:10:40.928Z,75.49
2023-07-24T00:15:42.886Z,75.88
2023-07-24T00:20:45.017Z,76.34
2023-07-24T00:25:48.592Z,76.25
2023-07-24T00:30:50.786Z,77.06
2023-07-24T00:35:56.633Z,77.79
2023-07-24T00:41:00.106Z,77.55
2023-07-24T00:46:03.863Z,77.84
2023-07-24T00:51:06.885Z,78.18
2023-07-24T00:56:11.141Z,78.22
2023-07-24T01:01:12.930Z,78.42
2023-07-24T01:06:14.776Z,78.06
2023-07-24T01:11:21.395Z,78.32
2023-07-24T01:16:27.217Z,78.18
2023-07-24T01:21:39.510Z,78.73
2023-07-24T01:26:43.488Z,78.48
2023-07-24T01:31:45.678Z,79.10
2023-07-24T01:36:49.997Z,77.75
2023-07-24T01:41:53.651Z,76.69
2023-07-24T01:46:55.847Z,77.57
2023-07-24T01:51:57.710Z,77.52
2023-07-24T01:57:01.291Z,77.07
2023-07-24T02:02:03.612Z,77.27
2023-07-24T02:07:05.780Z,76.98
2023-07-24T02:12:09.521Z,77.45
2023-07-24T02:17:11.517Z,77.53
2023-07-24T02:22:13.958Z,77.50
2023-07-24T02:27:26.385Z,78.09
2023-07-24T02:32:28.639Z,77.94
2023-07-24T02:37:30.873Z,77.50
2023-07-24T02:42:34.400Z,77.30
2023-07-24T02:47:36.579Z,76.63
2023-07-24T02:52:38.807Z,76.70
2023-07-24T02:57:41.928Z,76.82
2023-07-24T03:02:44.215Z,76.88
2023-07-24T03:07:46.049Z,76.96
2023-07-24T03:12:49.503Z,77.50
2023-07-24T03:17:51.526Z,77.77
2023-07-24T03:22:53.414Z,77.85
2023-07-24T03:27:56.872Z,77.90
2023-07-24T03:32:59.239Z,77.52
2023-07-24T03:38:01.236Z,78.06
2023-07-24T03:43:04.362Z,78.05
2023-07-24T03:48:06.827Z,78.19
2023-07-24T03:53:09.053Z,78.24
2023-07-24T03:58:12.375Z,78.19
2023-07-24T04:03:15.121Z,78.38
2023-07-24T04:08:17.235Z,78.68
2023-07-24T04:13:20.855Z,78.20
2023-07-24T04:18:22.876Z,78.07
2023-07-24T04:23:24.638Z,77.31
2023-07-24T04:28:27.728Z,76.07
2023-07-24T04:33:29.606Z,76.12
2023-07-24T04:38:33.141Z,75.66
2023-07-24T04:43:36.608Z,74.90
2023-07-24T04:48:38.357Z,74.12
2023-07-24T04:53:40.509Z,74.08
2023-07-24T04:58:43.886Z,74.39
2023-07-24T05:03:45.734Z,74.17
2023-07-24T05:08:47.566Z,73.07
2023-07-24T05:13:50.778Z,72.57
2023-07-24T05:18:52.948Z,71.34
2023-07-24T05:23:54.759Z,67.88
2023-07-24T05:28:58.474Z,62.18
2023-07-24T05:34:00.199Z,60.61
2023-07-24T05:39:02.370Z,55.60
2023-07-24T05:44:05.827Z,53.82
2023-07-24T05:49:08.010Z,50.55
2023-07-24T05:54:09.911Z,54.71
2023-07-24T05:59:13.420Z,60.42
2023-07-24T06:04:15.281Z,53.56
2023-07-24T06:09:17.099Z,51.70
2023-07-24T06:14:20.887Z,48.41
2023-07-24T06:19:23.317Z,42.67
2023-07-24T06:24:25.471Z,45.33
2023-07-24T06:29:28.945Z,43.23
2023-07-24T06:34:31.124Z,45.00
2023-07-24T06:39:32.876Z,43.25
2023-07-24T06:44:36.597Z,47.55
2023-07-24T06:49:38.814Z,50.09
2023-07-24T06:54:40.961Z,49.65
2023-07-24T06:59:44.459Z,47.43
2023-07-24T07:04:46.614Z,43.21
2023-07-24T07:09:48.767Z,45.87
2023-07-24T07:14:52.561Z,46.38
2023-07-24T07:19:54.877Z,45.60
2023-07-24T07:24:56.837Z,43.94
2023-07-24T07:30:00.457Z,41.71
2023-07-24T07:35:02.481Z,44.05
2023-07-24T07:40:05.492Z,44.56
2023-07-24T07:45:10.092Z,46.22
2023-07-24T07:50:11.869Z,45.13
2023-07-24T07:55:14.219Z,43.56
2023-07-24T08:00:18.445Z,45.76
2023-07-24T08:05:21.324Z,45.80
2023-07-24T08:10:23.512Z,45.58
2023-07-24T08:15:27.178Z,47.83
2023-07-24T08:20:29.864Z,51.04
2023-07-24T08:25:32.273Z,51.74
2023-07-24T08:30:36.058Z,51.77
2023-07-24T08:35:37.980Z,49.16
2023-07-24T08:40:40.224Z,45.62
2023-07-24T08:45:43.824Z,46.65
2023-07-24T08:50:48.176Z,45.54
2023-07-24T08:55:52.808Z,44.54
2023-07-24T09:00:57.866Z,42.14
2023-07-24T09:06:00.156Z,44.26
2023-07-24T09:11:03.329Z,42.86
2023-07-24T09:16:07.458Z,41.48
2023-07-24T09:21:11.436Z,43.07
2023-07-24T09:26:13.766Z,42.44
2023-07-24T09:31:17.534Z,43.80
2023-07-24T09:36:19.710Z,40.52
2023-07-24T09:41:29.084Z,37.48
2023-07-24T09:46:33.408Z,36.55
2023-07-24T09:51:37.021Z,35.57
2023-07-24T09:56:50.495Z,38.04
2023-07-24T10:01:57.249Z,39.38
2023-07-24T10:06:59.476Z,36.14
2023-07-24T10:12:02.811Z,40.32
2023-07-24T10:17:06.820Z,36.59
2023-07-24T10:22:08.851Z,35.32
2023-07-24T10:27:11.159Z,34.61
2023-07-24T10:32:20.953Z,37.17
2023-07-24T10:37:32.902Z,36.89
2023-07-24T10:42:35.463Z,37.43
2023-07-24T10:47:38.996Z,37.76
2023-07-24T10:52:41.203Z,38.29
2023-07-24T10:57:43.167Z,38.15
2023-07-24T11:02:46.574Z,38.61
2023-07-24T11:07:48.920Z,39.39
2023-07-24T11:12:51.316Z,39.66
2023-07-24T11:17:55.332Z,40.07
2023-07-24T11:22:59.190Z,38.40
2023-07-24T11:28:01.470Z,36.46
2023-07-24T11:33:07.656Z,37.64
2023-07-24T11:38:10.781Z,38.96
2023-07-24T11:43:17.155Z,37.51
2023-07-24T11:48:21.709Z,37.88
2023-07-24T11:53:26.093Z,38.06
2023-07-24T11:58:28.946Z,38.56
2023-07-24T12:03:32.681Z,37.22
2023-07-24T12:08:36.802Z,37.09
2023-07-24T12:13:39.104Z,38.25
2023-07-24T12:18:42.757Z,40.21
2023-07-24T12:23:45.250Z,41.23
2023-07-24T12:28:47.339Z,39.91
2023-07-24T12:33:50.855Z,45.26
2023-07-24T12:38:53.073Z,49.93
2023-07-24T12:43:55.207Z,56.30
2023-07-24T12:48:58.833Z,64.47
2023-07-24T12:54:11.758Z,61.99
2023-07-24T12:59:23.643Z,61.06
2023-07-24T13:04:27.135Z,59.72
2023-07-24T13:09:29.398Z,60.42
2023-07-24T13:14:31.258Z,59.22
2023-07-24T13:19:34.394Z,55.14
2023-07-24T13:24:37.602Z,53.89
2023-07-24T13:29:39.405Z,55.07
2023-07-24T13:34:42.920Z,54.13
2023-07-24T13:39:45.386Z,54.43
2023-07-24T13:44:47.848Z,56.43
2023-07-24T13:49:51.454Z,58.12
2023-07-24T13:54:53.186Z,59.16
2023-07-24T13:59:55.475Z,58.89
2023-07-24T14:04:59.062Z,57.68
2023-07-24T14:10:01.223Z,57.74
2023-07-24T14:15:03.663Z,56.79
2023-07-24T14:20:08.780Z,57.09
2023-07-24T14:25:11.192Z,60.15
2023-07-24T14:30:13.381Z,60.34
2023-07-24T14:35:16.567Z,61.43
2023-07-24T14:40:19.081Z,61.91
2023-07-24T14:45:21.368Z,62.21
2023-07-24T14:50:24.869Z,61.30
2023-07-24T14:55:26.813Z,60.27
2023-07-24T15:00:28.740Z,60.07
2023-07-24T15:05:32.409Z,60.53
2023-07-24T15:10:34.490Z,60.18
2023-07-24T15:15:37.269Z,58.70
2023-07-24T15:20:42.337Z,55.81
2023-07-24T15:25:44.592Z,54.14
2023-07-24T15:30:46.708Z,52.41
2023-07-24T15:35:50.815Z,50.18
2023-07-24T15:40:52.619Z,48.74
2023-07-24T15:45:54.637Z,48.21
2023-07-24T15:50:58.185Z,47.84
2023-07-24T15:56:00.573Z,48.49
2023-07-24T16:01:02.953Z,49.49
2023-07-24T16:06:06.116Z,48.28
2023-07-24T16:11:08.267Z,46.85
2023-07-24T16:16:10.649Z,47.59
2023-07-24T16:21:13.782Z,47.85
2023-07-24T16:26:16.218Z,47.57
2023-07-24T16:31:18.370Z,47.75
2023-07-24T16:36:22.059Z,48.27
2023-07-24T16:41:23.950Z,48.42
2023-07-24T16:46:26.356Z,47.59
2023-07-24T16:51:30.289Z,49.72
2023-07-24T16:56:32.701Z,51.35
2023-07-24T17:01:35.300Z,53.33
2023-07-24T17:06:38.945Z,54.96
2023-07-24T17:11:41.152Z,54.74
2023-07-24T17:16:42.891Z,76.56
2023-07-24T17:21:45.922Z,97.66
2023-07-24T17:26:48.170Z,100.00
2023-07-24T17:31:50.024Z,100.00
2023-07-24T17:36:53.058Z,100.00
2023-07-24T17:41:55.171Z,100.00
2023-07-24T17:46:57.308Z,100.00
2023-07-24T17:52:00.794Z,100.00
2023-07-24T17:57:02.588Z,100.00
2023-07-24T18:02:05.031Z,100.00
2023-07-24T18:07:08.529Z,100.00
2023-07-24T18:12:10.248Z,100.00
2023-07-24T18:17:12.040Z,100.00
2023-07-24T18:22:15.692Z,100.00
2023-07-24T18:27:17.614Z,100.00
2023-07-24T18:32:19.350Z,100.00
2023-07-24T18:37:22.458Z,100.00
2023-07-24T18:42:24.243Z,100.00
2023-07-24T18:47:26.064Z,100.00
2023-07-24T18:52:29.310Z,100.00
2023-07-24T18:57:31.090Z,100.00
2023-07-24T19:02:32.929Z,100.00
2023-07-24T19:07:36.479Z,100.00
2023-07-24T19:12:38.760Z,100.00
2023-07-24T19:17:40.881Z,100.00
2023-07-24T19:22:43.999Z,100.00
2023-07-24T19:27:45.961Z,100.00
2023-07-24T19:32:47.983Z,100.00
2023-07-24T19:37:51.137Z,100.00
2023-07-24T19:42:53.213Z,100.00
2023-07-24T19:47:55.464Z,100.00
2023-07-24T19:52:58.949Z,100.00
2023-07-24T19:58:00.888Z,100.00
2023-07-24T20:03:02.679Z,100.00
2023-07-24T20:08:06.139Z,100.00
2023-07-24T20:13:07.836Z,100.00
2023-07-24T20:18:10.043Z,100.00
2023-07-24T20:23:14.185Z,100.00
2023-07-24T20:28:16.231Z,100.00
2023-07-24T20:33:18.367Z,100.00
2023-07-24T20:38:28.516Z,100.00
2023-07-24T20:43:30.702Z,100.00
2023-07-24T20:48:32.557Z,100.00
2023-07-24T20:53:36.440Z,100.00
2023-07-24T20:58:38.701Z,100.00
2023-07-24T21:03:40.821Z,100.00
2023-07-24T21:08:44.008Z,100.00
2023-07-24T21:13:46.414Z,100.00
2023-07-24T21:18:48.455Z,100.00
2023-07-24T21:23:52.044Z,100.00
2023-07-24T21:28:54.349Z,100.00
2023-07-24T21:33:56.057Z,100.00
2023-07-24T21:38:59.638Z,100.00
2023-07-24T21:44:01.647Z,100.00
2023-07-24T21:49:03.951Z,100.00
2023-07-24T21:54:07.374Z,100.00
2023-07-24T21:59:09.685Z,100.00
2023-07-24T22:04:11.920Z,100.00
2023-07-24T22:09:15.072Z,100.00
2023-07-24T22:14:17.107Z,100.00
2023-07-24T22:19:18.938Z,100.00
2023-07-24T22:24:22.596Z,100.00
2023-07-24T22:29:24.562Z,100.00
2023-07-24T22:34:26.691Z,100.00
2023-07-24T22:39:30.200Z,100.00
2023-07-24T22:44:32.422Z,100.00
2023-07-24T22:49:34.609Z,100.00
2023-07-24T22:54:38.152Z,100.00
2023-07-24T22:59:39.922Z,100.00
2023-07-24T23:04:41.663Z,100.00
2023-07-24T23:09:44.875Z,100.00
2023-07-24T23:14:46.617Z,100.00
2023-07-24T23:19:48.768Z,100.00
2023-07-24T23:24:52.561Z,100.00
2023-07-24T23:29:54.897Z,100.00
2023-07-24T23:34:57.022Z,100.00
2023-07-24T23:40:00.472Z,100.00
2023-07-24T23:45:02.622Z,100.00
2023-07-24T23:50:05.389Z,100.00
2023-07-24T23:55:09.400Z,100.00
